createdAt,value
2022-12-08T00:01:35.196Z,12.00
2022-12-08T00:04:03.898Z,12.57
2022-12-08T00:06:55.185Z,12.38
2022-12-08T00:09:27.299Z,12.05
2022-12-08T00:11:58.224Z,12.23
2022-12-08T00:14:27.591Z,12.98
2022-12-08T00:16:54.750Z,13.85
2022-12-08T00:19:22.234Z,13.40
2022-12-08T00:21:48.846Z,12.13
2022-12-08T00:24:15.651Z,12.73
2022-12-08T00:26:42.432Z,12.35
2022-12-08T00:29:13.114Z,12.25
2022-12-08T00:31:42.536Z,11.80
2022-12-08T00:34:09.306Z,13.50
2022-12-08T00:36:35.793Z,12.63
2022-12-08T00:39:02.425Z,12.43
2022-12-08T00:41:47.569Z,12.07
2022-12-08T00:44:15.935Z,11.77
2022-12-08T00:46:42.734Z,13.65
2022-12-08T00:49:09.363Z,12.45
2022-12-08T00:51:36.488Z,11.88
2022-12-08T00:54:03.863Z,11.82
2022-12-08T00:56:30.703Z,11.48
2022-12-08T00:58:57.403Z,12.90
2022-12-08T01:01:24.245Z,12.15
2022-12-08T01:03:50.983Z,12.27
2022-12-08T01:06:17.710Z,11.52
2022-12-08T01:08:44.769Z,12.38
2022-12-08T01:11:17.159Z,15.30
2022-12-08T01:13:45.100Z,15.70
2022-12-08T01:16:22.545Z,13.63
2022-12-08T01:18:49.601Z,14.18
2022-12-08T01:21:17.152Z,15.15
2022-12-08T01:23:43.674Z,13.57
2022-12-08T01:26:16.398Z,15.00
2022-12-08T01:28:44.189Z,13.07
2022-12-08T01:31:21.612Z,13.60
2022-12-08T01:33:49.381Z,11.55
2022-12-08T01:36:27.631Z,12.88
2022-12-08T01:38:58.775Z,11.70
2022-12-08T01:41:29.526Z,12.02
2022-12-08T01:44:08.980Z,12.80
2022-12-08T01:46:38.511Z,11.32
2022-12-08T01:49:13.993Z,12.43
2022-12-08T01:51:55.452Z,11.57
2022-12-08T01:54:26.110Z,12.45
2022-12-08T01:56:59.096Z,12.55
2022-12-08T01:59:30.138Z,12.27
2022-12-08T02:01:58.012Z,11.32
2022-12-08T02:04:24.832Z,12.20
2022-12-08T02:06:53.228Z,11.40
2022-12-08T02:09:20.412Z,11.88
2022-12-08T02:11:48.125Z,12.75
2022-12-08T02:14:15.588Z,12.25
2022-12-08T02:16:55.368Z,12.60
2022-12-08T02:19:49.634Z,12.80
2022-12-08T02:22:26.786Z,13.88
2022-12-08T02:25:06.663Z,13.13
2022-12-08T02:27:55.721Z,12.35
2022-12-08T02:30:26.809Z,11.45
2022-12-08T02:33:31.181Z,12.07
2022-12-08T02:36:18.933Z,12.88
2022-12-08T02:39:02.922Z,12.90
2022-12-08T02:41:45.835Z,13.60
2022-12-08T02:44:24.354Z,13.48
2022-12-08T02:46:56.358Z,12.93
2022-12-08T02:49:32.044Z,13.57
2022-12-08T02:52:29.468Z,14.52
2022-12-08T02:55:01.839Z,12.10
2022-12-08T02:57:35.923Z,12.10
2022-12-08T03:00:08.448Z,12.40
2022-12-08T03:03:05.409Z,12.65
2022-12-08T03:06:01.560Z,12.05
2022-12-08T03:08:32.724Z,12.18
2022-12-08T03:11:14.371Z,12.30
2022-12-08T03:13:45.761Z,11.98
2022-12-08T03:18:48.453Z,11.23
2022-12-08T03:21:18.302Z,13.15
2022-12-08T03:23:48.021Z,11.23
2022-12-08T03:26:24.946Z,11.30
2022-12-08T03:28:51.623Z,12.18
2022-12-08T03:31:19.979Z,11.55
2022-12-08T03:33:52.056Z,11.32
2022-12-08T03:36:19.752Z,12.32
2022-12-08T03:38:47.012Z,11.68
2022-12-08T03:41:19.464Z,12.18
2022-12-08T03:43:48.180Z,11.60
2022-12-08T03:46:16.660Z,12.07
2022-12-08T03:48:43.656Z,12.13
2022-12-08T03:51:10.278Z,11.40
2022-12-08T03:53:37.410Z,11.30
2022-12-08T03:56:05.672Z,11.80
2022-12-08T03:58:37.173Z,11.43
2022-12-08T04:01:04.051Z,11.48
2022-12-08T04:03:30.692Z,11.48
2022-12-08T04:05:57.195Z,11.35
2022-12-08T04:08:23.872Z,11.02
2022-12-08T04:10:50.560Z,11.48
2022-12-08T04:13:17.146Z,11.35
2022-12-08T04:15:47.604Z,11.52
2022-12-08T04:18:15.206Z,11.13
2022-12-08T04:20:44.028Z,11.13
2022-12-08T04:23:12.247Z,11.52
2022-12-08T04:25:39.195Z,11.52
2022-12-08T04:28:06.325Z,10.88
2022-12-08T04:30:33.222Z,11.73
2022-12-08T04:33:04.049Z,11.55
2022-12-08T04:35:30.725Z,11.05
2022-12-08T04:37:57.364Z,11.27
2022-12-08T04:40:26.280Z,11.68
2022-12-08T04:42:52.805Z,10.52
2022-12-08T04:45:19.466Z,11.55
2022-12-08T04:47:45.999Z,11.63
2022-12-08T04:50:13.368Z,10.93
2022-12-08T04:52:40.137Z,10.90
2022-12-08T04:55:06.981Z,11.30
2022-12-08T04:57:33.605Z,11.07
2022-12-08T05:00:00.141Z,10.93
2022-12-08T05:02:26.684Z,10.38
2022-12-08T05:04:53.328Z,11.50
2022-12-08T05:07:19.802Z,10.80
2022-12-08T05:09:46.450Z,10.07
2022-12-08T05:12:12.947Z,10.25
2022-12-08T05:14:39.522Z,10.43
2022-12-08T05:17:09.556Z,11.15
2022-12-08T05:19:36.484Z,10.90
2022-12-08T05:22:03.161Z,10.85
2022-12-08T05:24:29.647Z,10.48
2022-12-08T05:26:56.152Z,10.02
2022-12-08T05:29:22.882Z,10.80
2022-12-08T05:31:49.700Z,9.95
2022-12-08T05:34:16.380Z,11.07
2022-12-08T05:36:42.983Z,10.35
2022-12-08T05:39:13.631Z,11.18
2022-12-08T05:41:40.449Z,11.55
2022-12-08T05:44:07.861Z,10.75
2022-12-08T05:46:36.289Z,10.48
2022-12-08T05:49:12.505Z,10.10
2022-12-08T05:51:39.173Z,11.80
2022-12-08T05:54:06.227Z,10.77
2022-12-08T05:56:32.745Z,10.80
2022-12-08T05:59:01.653Z,10.75
2022-12-08T06:01:32.081Z,11.02
2022-12-08T06:04:01.300Z,12.48
2022-12-08T06:06:32.144Z,11.20
2022-12-08T06:08:58.886Z,10.85
2022-12-08T06:11:30.080Z,11.10
2022-12-08T06:13:57.722Z,11.48
2022-12-08T06:16:27.707Z,10.68
2022-12-08T06:18:55.587Z,11.27
2022-12-08T06:21:22.150Z,10.98
2022-12-08T06:23:50.606Z,11.10
2022-12-08T06:26:17.881Z,11.80
2022-12-08T06:28:51.903Z,11.70
2022-12-08T06:31:26.358Z,11.80
2022-12-08T06:33:54.469Z,10.65
2022-12-08T06:36:24.107Z,11.07
2022-12-08T06:38:51.016Z,10.57
2022-12-08T06:41:17.589Z,11.27
2022-12-08T06:43:44.590Z,11.63
2022-12-08T06:46:14.372Z,10.32
2022-12-08T06:48:41.559Z,10.48
2022-12-08T06:51:15.801Z,11.38
2022-12-08T06:53:43.571Z,11.23
2022-12-08T06:56:11.100Z,10.75
2022-12-08T06:58:38.314Z,11.18
2022-12-08T07:01:13.030Z,10.38
2022-12-08T07:03:40.983Z,11.45
2022-12-08T07:06:07.784Z,11.15
2022-12-08T07:08:35.202Z,12.30
2022-12-08T07:11:09.824Z,10.25
2022-12-08T07:13:36.666Z,11.07
2022-12-08T07:16:21.676Z,10.85
2022-12-08T07:18:48.586Z,11.05
2022-12-08T07:21:16.082Z,11.77
2022-12-08T07:23:45.679Z,11.60
2022-12-08T07:26:13.365Z,10.77
2022-12-08T07:28:41.614Z,10.80
2022-12-08T07:31:17.093Z,10.38
2022-12-08T07:33:43.923Z,10.95
2022-12-08T07:36:10.847Z,11.25
2022-12-08T07:38:37.370Z,10.75
2022-12-08T07:41:04.178Z,11.35
2022-12-08T07:43:31.117Z,10.70
2022-12-08T07:45:57.798Z,11.05
2022-12-08T07:48:24.616Z,23.70
2022-12-08T07:50:51.491Z,11.63
2022-12-08T07:53:22.220Z,12.60
2022-12-08T07:55:48.801Z,11.15
2022-12-08T07:58:15.408Z,11.45
2022-12-08T08:00:42.071Z,10.90
2022-12-08T08:03:11.495Z,10.32
2022-12-08T08:05:38.757Z,10.52
2022-12-08T08:08:05.828Z,10.55
2022-12-08T08:10:32.677Z,10.85
2022-12-08T08:12:59.750Z,10.63
2022-12-08T08:15:27.728Z,11.00
2022-12-08T08:17:54.663Z,10.98
2022-12-08T08:20:24.807Z,11.27
2022-12-08T08:22:52.141Z,9.85
2022-12-08T08:25:20.590Z,10.10
2022-12-08T08:27:47.413Z,9.85
2022-12-08T08:30:20.058Z,10.25
2022-12-08T08:32:50.624Z,10.57
2022-12-08T08:35:17.383Z,9.77
2022-12-08T08:37:49.190Z,9.10
2022-12-08T08:40:19.318Z,9.95
2022-12-08T08:42:45.860Z,8.63
2022-12-08T08:45:12.509Z,9.98
2022-12-08T08:47:39.180Z,10.38
2022-12-08T08:50:07.068Z,9.90
2022-12-08T08:52:34.054Z,10.13
2022-12-08T08:55:00.598Z,9.38
2022-12-08T08:57:27.144Z,9.20
2022-12-08T08:59:54.309Z,9.68
2022-12-08T09:02:22.073Z,10.10
2022-12-08T09:04:49.144Z,9.63
2022-12-08T09:07:16.512Z,9.55
2022-12-08T09:09:46.168Z,9.20
2022-12-08T09:12:13.540Z,10.68
2022-12-08T09:14:40.703Z,10.07
2022-12-08T09:17:07.696Z,9.18
2022-12-08T09:19:34.860Z,9.45
2022-12-08T09:22:02.263Z,9.98
2022-12-08T09:24:29.634Z,9.85
2022-12-08T09:26:56.721Z,10.43
2022-12-08T09:29:24.578Z,9.10
2022-12-08T09:31:51.684Z,8.90
2022-12-08T09:34:18.604Z,9.20
2022-12-08T09:36:45.438Z,9.60
2022-12-08T09:39:12.081Z,8.98
2022-12-08T09:41:54.690Z,8.35
2022-12-08T09:44:44.354Z,8.75
2022-12-08T09:47:20.225Z,10.45
2022-12-08T09:50:04.513Z,9.13
2022-12-08T09:52:36.632Z,9.57
2022-12-08T09:55:18.009Z,11.35
2022-12-08T09:57:44.957Z,9.85
2022-12-08T10:00:13.890Z,7.95
2022-12-08T10:02:47.597Z,8.65
2022-12-08T10:05:16.205Z,8.63
2022-12-08T10:07:48.736Z,8.93
2022-12-08T10:10:27.901Z,8.65
2022-12-08T10:13:20.553Z,8.07
2022-12-08T10:16:08.837Z,8.25
2022-12-08T10:18:37.874Z,7.95
2022-12-08T10:21:16.790Z,8.10
2022-12-08T10:23:51.084Z,8.77
2022-12-08T10:26:22.721Z,11.02
2022-12-08T10:28:49.536Z,8.18
2022-12-08T10:31:19.183Z,8.35
2022-12-08T10:33:48.594Z,7.53
2022-12-08T10:36:15.298Z,7.60
2022-12-08T10:38:41.998Z,7.63
2022-12-08T10:41:11.588Z,11.30
2022-12-08T10:43:48.431Z,7.30
2022-12-08T10:46:21.726Z,7.25
2022-12-08T10:48:54.308Z,7.05
2022-12-08T10:51:29.880Z,7.43
2022-12-08T10:53:57.242Z,6.80
2022-12-08T10:56:30.083Z,6.68
2022-12-08T10:59:19.805Z,7.35
2022-12-08T11:01:51.500Z,7.00
2022-12-08T11:04:36.483Z,6.80
2022-12-08T11:07:05.906Z,6.78
2022-12-08T11:09:48.958Z,8.93
2022-12-08T11:12:17.622Z,6.40
2022-12-08T11:14:44.214Z,7.20
2022-12-08T11:17:14.724Z,6.53
2022-12-08T11:19:44.309Z,7.63
2022-12-08T11:22:34.244Z,6.97
2022-12-08T11:25:11.540Z,7.10
2022-12-08T11:27:43.702Z,6.93
2022-12-08T11:30:24.107Z,7.53
2022-12-08T11:32:55.622Z,7.00
2022-12-08T11:35:37.485Z,6.63
2022-12-08T11:38:21.584Z,7.00
2022-12-08T11:40:53.367Z,7.20
2022-12-08T11:43:46.062Z,6.20
2022-12-08T11:46:20.104Z,6.65
2022-12-08T11:49:06.442Z,6.88
2022-12-08T11:52:18.440Z,7.07
2022-12-08T11:54:59.661Z,7.05
2022-12-08T11:57:29.641Z,6.63
2022-12-08T11:59:58.619Z,6.60
2022-12-08T12:02:32.057Z,6.93
2022-12-08T12:05:10.744Z,7.53
2022-12-08T12:08:08.579Z,7.68
2022-12-08T12:10:41.108Z,6.95
2022-12-08T12:13:41.741Z,7.03
2022-12-08T12:16:33.741Z,7.55
2022-12-08T12:19:10.403Z,7.22
2022-12-08T12:21:42.716Z,7.00
2022-12-08T12:24:23.806Z,6.80
2022-12-08T12:27:02.685Z,6.85
2022-12-08T12:29:33.063Z,6.93
2022-12-08T12:32:08.615Z,7.30
2022-12-08T12:34:46.460Z,7.35
2022-12-08T12:37:18.255Z,6.82
2022-12-08T12:39:57.742Z,7.07
2022-12-08T12:42:49.305Z,8.10
2022-12-08T12:45:20.063Z,6.72
2022-12-08T12:48:20.250Z,8.30
2022-12-08T12:50:50.280Z,9.05
2022-12-08T12:53:16.608Z,9.32
2022-12-08T12:55:46.247Z,8.68
2022-12-08T12:58:27.879Z,7.85
2022-12-08T13:01:12.946Z,9.57
2022-12-08T13:03:43.736Z,9.65
2022-12-08T13:06:15.177Z,9.07
2022-12-08T13:08:53.375Z,7.97
2022-12-08T13:11:21.566Z,7.75
2022-12-08T13:14:00.204Z,7.07
2022-12-08T13:16:31.608Z,6.78
2022-12-08T13:19:02.809Z,7.93
2022-12-08T13:24:19.774Z,6.65
2022-12-08T13:27:10.133Z,6.88
2022-12-08T13:29:41.090Z,7.45
2022-12-08T13:32:10.555Z,6.72
2022-12-08T13:34:56.850Z,6.45
2022-12-08T13:37:48.120Z,6.10
2022-12-08T13:40:24.986Z,6.10
2022-12-08T13:43:06.745Z,5.60
2022-12-08T13:49:52.693Z,5.97
2022-12-08T13:57:27.219Z,6.90
2022-12-08T14:02:53.046Z,6.25
2022-12-08T14:11:10.827Z,6.35
2022-12-08T14:13:43.958Z,7.05
2022-12-08T14:16:29.029Z,7.00
2022-12-08T14:19:03.363Z,6.53
2022-12-08T14:21:35.830Z,5.85
2022-12-08T14:24:08.267Z,6.55
2022-12-08T14:26:40.954Z,6.13
2022-12-08T14:29:29.095Z,7.10
2022-12-08T14:32:01.384Z,6.40
2022-12-08T14:34:28.897Z,5.65
2022-12-08T14:36:55.969Z,19.75
2022-12-08T14:39:25.083Z,5.43
2022-12-08T14:42:01.593Z,6.22
2022-12-08T14:44:42.709Z,5.53
2022-12-08T14:47:12.061Z,5.35
2022-12-08T14:49:39.942Z,5.70
2022-12-08T14:52:11.675Z,5.88
2022-12-08T14:54:40.416Z,6.03
2022-12-08T14:57:08.050Z,5.20
2022-12-08T14:59:38.148Z,5.95
2022-12-08T15:02:16.114Z,5.60
2022-12-08T15:04:47.806Z,5.82
2022-12-08T15:07:21.455Z,6.38
2022-12-08T15:09:57.645Z,5.30
2022-12-08T15:12:32.063Z,6.78
2022-12-08T15:15:02.858Z,6.72
2022-12-08T15:17:44.805Z,5.45
2022-12-08T15:20:46.224Z,5.40
2022-12-08T15:23:43.282Z,5.68
2022-12-08T15:26:20.323Z,5.28
2022-12-08T15:28:47.316Z,6.45
2022-12-08T15:31:26.235Z,5.97
2022-12-08T15:33:53.366Z,5.57
2022-12-08T15:36:20.082Z,7.38
2022-12-08T15:38:46.649Z,6.13
2022-12-08T15:41:15.362Z,5.93
2022-12-08T15:43:42.179Z,6.57
2022-12-08T15:46:09.141Z,6.45
2022-12-08T15:48:37.862Z,6.30
2022-12-08T15:51:04.500Z,6.55
2022-12-08T15:53:31.054Z,6.38
2022-12-08T15:58:56.062Z,6.82
2022-12-08T16:01:23.851Z,6.32
2022-12-08T16:09:42.283Z,10.38
2022-12-08T16:13:27.281Z,11.07
2022-12-08T16:18:23.188Z,11.98
2022-12-08T16:23:45.293Z,7.65
2022-12-08T16:26:28.322Z,9.38
2022-12-08T16:29:02.476Z,8.20
2022-12-08T16:31:29.273Z,8.10
2022-12-08T16:33:56.020Z,9.45
2022-12-08T16:36:22.633Z,6.93
2022-12-08T16:38:49.574Z,7.65
2022-12-08T16:41:36.336Z,7.50
2022-12-08T16:44:05.714Z,7.63
2022-12-08T16:46:36.020Z,8.25
2022-12-08T16:49:03.389Z,7.60
2022-12-08T16:51:30.036Z,8.48
2022-12-08T16:53:59.761Z,9.10
2022-12-08T16:56:32.739Z,8.63
2022-12-08T16:59:01.464Z,8.32
2022-12-08T17:01:28.205Z,8.15
2022-12-08T17:04:30.005Z,8.20
2022-12-08T17:06:41.442Z,7.03
2022-12-08T17:09:07.883Z,8.50
2022-12-08T17:11:40.845Z,7.82
2022-12-08T17:14:09.681Z,7.72
2022-12-08T17:16:36.605Z,7.53
2022-12-08T17:19:03.469Z,7.38
2022-12-08T17:21:30.099Z,8.82
2022-12-08T17:23:57.007Z,8.25
2022-12-08T17:26:23.612Z,7.80
2022-12-08T17:29:06.054Z,8.38
2022-12-08T17:31:36.067Z,7.63
2022-12-08T17:34:05.798Z,8.02
2022-12-08T17:36:32.674Z,7.78
2022-12-08T17:39:00.485Z,7.97
2022-12-08T17:41:28.049Z,9.00
2022-12-08T17:43:54.633Z,8.38
2022-12-08T17:46:21.575Z,7.60
2022-12-08T17:48:48.210Z,7.90
2022-12-08T17:51:15.205Z,7.25
2022-12-08T17:53:42.016Z,8.80
2022-12-08T17:56:21.228Z,8.07
2022-12-08T17:58:52.821Z,8.70
2022-12-08T18:01:22.579Z,7.07
2022-12-08T18:03:49.314Z,7.57
2022-12-08T18:06:17.571Z,7.78
2022-12-08T18:08:44.796Z,7.97
2022-12-08T18:11:17.449Z,7.40
2022-12-08T18:13:44.518Z,7.68
2022-12-08T18:16:11.388Z,7.93
2022-12-08T18:18:37.967Z,7.22
2022-12-08T18:21:04.600Z,7.28
2022-12-08T18:23:31.216Z,7.90
2022-12-08T18:25:57.841Z,8.40
2022-12-08T18:28:24.731Z,7.95
2022-12-08T18:30:51.382Z,7.80
2022-12-08T18:33:17.923Z,6.82
2022-12-08T18:35:45.620Z,7.32
2022-12-08T18:38:12.085Z,7.35
2022-12-08T18:40:38.885Z,7.60
2022-12-08T18:43:05.482Z,7.47
2022-12-08T18:45:32.190Z,7.22
2022-12-08T18:47:58.769Z,7.40
2022-12-08T18:50:25.296Z,8.07
2022-12-08T18:52:51.763Z,8.30
2022-12-08T18:55:18.580Z,15.52
2022-12-08T18:57:45.544Z,7.82
2022-12-08T19:00:17.056Z,7.82
2022-12-08T19:02:45.284Z,7.07
2022-12-08T19:05:13.459Z,8.05
2022-12-08T19:07:40.108Z,8.32
2022-12-08T19:10:10.205Z,8.32
2022-12-08T19:12:38.189Z,8.38
2022-12-08T19:15:05.637Z,8.43
2022-12-08T19:17:32.521Z,9.02
2022-12-08T19:20:02.164Z,11.82
2022-12-08T19:22:28.825Z,9.73
2022-12-08T19:24:57.792Z,9.27
2022-12-08T19:27:24.640Z,11.23
2022-12-08T19:29:51.359Z,10.13
2022-12-08T19:32:23.406Z,11.88
2022-12-08T19:34:53.070Z,11.05
2022-12-08T19:37:23.738Z,12.45
2022-12-08T19:40:22.023Z,12.63
2022-12-08T19:43:07.223Z,11.45
2022-12-08T19:45:40.983Z,10.25
2022-12-08T19:48:07.754Z,10.73
2022-12-08T19:50:38.206Z,12.32
2022-12-08T19:53:14.901Z,11.77
2022-12-08T19:55:43.354Z,11.35
2022-12-08T19:58:11.418Z,10.80
2022-12-08T20:00:39.038Z,12.15
2022-12-08T20:03:06.580Z,10.10
2022-12-08T20:05:40.244Z,9.07
2022-12-08T20:08:07.162Z,10.57
2022-12-08T20:10:37.657Z,10.35
2022-12-08T20:13:23.985Z,11.25
2022-12-08T20:15:51.174Z,11.45
2022-12-08T20:18:21.176Z,11.48
2022-12-08T20:20:48.758Z,11.75
2022-12-08T20:23:20.974Z,10.70
2022-12-08T20:25:49.720Z,10.45
2022-12-08T20:28:18.958Z,9.52
2022-12-08T20:30:49.295Z,10.98
2022-12-08T20:33:18.106Z,10.18
2022-12-08T20:35:46.260Z,9.98
2022-12-08T20:38:14.659Z,10.98
2022-12-08T20:40:43.921Z,10.05
2022-12-08T20:43:10.631Z,10.45
2022-12-08T20:45:37.836Z,10.90
2022-12-08T20:48:04.876Z,10.35
2022-12-08T20:50:34.701Z,10.73
2022-12-08T20:53:01.576Z,11.05
2022-12-08T20:55:28.602Z,12.57
2022-12-08T20:57:58.238Z,12.07
2022-12-08T21:00:27.369Z,11.10
2022-12-08T21:02:56.826Z,10.70
2022-12-08T21:05:24.103Z,10.77
2022-12-08T21:07:51.048Z,9.75
2022-12-08T21:10:17.991Z,9.73
2022-12-08T21:12:47.308Z,9.70
2022-12-08T21:15:14.106Z,10.45
2022-12-08T21:17:40.961Z,10.15
2022-12-08T21:20:10.175Z,9.02
2022-12-08T21:22:37.209Z,9.05
2022-12-08T21:25:04.144Z,10.55
2022-12-08T21:27:31.414Z,9.70
2022-12-08T21:29:59.121Z,8.65
2022-12-08T21:32:30.335Z,8.80
2022-12-08T21:35:00.365Z,10.48
2022-12-08T21:37:27.441Z,9.63
2022-12-08T21:39:54.101Z,10.73
2022-12-08T21:42:39.625Z,11.50
2022-12-08T21:45:06.770Z,9.88
2022-12-08T21:47:36.602Z,10.18
2022-12-08T21:50:05.439Z,9.23
2022-12-08T21:52:39.197Z,9.50
2022-12-08T21:55:10.734Z,8.95
2022-12-08T21:57:37.719Z,10.35
2022-12-08T22:00:06.853Z,9.40
2022-12-08T22:02:34.145Z,9.88
2022-12-08T22:05:00.935Z,9.88
2022-12-08T22:07:27.709Z,9.15
2022-12-08T22:09:57.238Z,10.45
2022-12-08T22:12:24.237Z,9.95
2022-12-08T22:14:51.202Z,9.43
2022-12-08T22:17:18.909Z,9.23
2022-12-08T22:19:46.057Z,11.82
2022-12-08T22:22:12.938Z,10.50
2022-12-08T22:24:42.453Z,9.20
2022-12-08T22:27:09.274Z,9.98
2022-12-08T22:29:36.125Z,10.20
2022-12-08T22:32:02.918Z,9.45
2022-12-08T22:34:30.569Z,9.38
2022-12-08T22:36:57.605Z,13.07
2022-12-08T22:39:24.646Z,9.88
2022-12-08T22:41:53.664Z,9.98
2022-12-08T22:44:20.728Z,21.02
2022-12-08T22:46:47.871Z,10.68
2022-12-08T22:49:14.606Z,8.82
2022-12-08T22:51:41.242Z,11.00
2022-12-08T22:54:10.730Z,9.65
2022-12-08T22:56:37.585Z,11.43
2022-12-08T22:59:04.493Z,9.65
2022-12-08T23:01:32.784Z,9.70
2022-12-08T23:04:00.461Z,9.25
2022-12-08T23:06:28.634Z,10.25
2022-12-08T23:08:56.257Z,9.80
2022-12-08T23:11:25.383Z,9.38
2022-12-08T23:13:52.311Z,9.43
2022-12-08T23:16:19.158Z,10.15
2022-12-08T23:18:46.878Z,18.48
2022-12-08T23:21:17.696Z,10.23
2022-12-08T23:23:44.676Z,8.77
2022-12-08T23:26:32.056Z,9.27
2022-12-08T23:28:59.609Z,10.32
2022-12-08T23:31:27.252Z,10.13
2022-12-08T23:33:54.724Z,9.93
2022-12-08T23:36:24.990Z,10.82
2022-12-08T23:38:52.792Z,10.45
2022-12-08T23:41:19.455Z,10.52
2022-12-08T23:43:48.543Z,12.45
2022-12-08T23:46:17.251Z,10.60
2022-12-08T23:48:44.229Z,12.05
2022-12-08T23:51:11.638Z,10.32
2022-12-08T23:53:38.426Z,11.15
2022-12-08T23:56:08.226Z,11.02
